Tiempo atmosférico en la estación meteorológica de Manresa, Barcelona (291 m.)



Fecha
DESCASC
Temp. máxima en grados centígrados (hora)
DESCASC
Temp. mínima en grados centígrados (hora)
DESCASC
Temp. media en grados centígrados
DESCASC
Racha de viento máxima en m/sg (hora)
DESCASC
Velocidad máxima media en intervalos de 10 minutos(hora)
DESCASC
Precipitaciones diarias en mm
DESCASC
Precipitaciones de 00:00 a 06:00 en mm
DESCASC
Precipitaciones de 06:00 a 12:00 en mm
DESCASC
Precipitaciones de 12:00 a 18:00 en mm
DESCASC
Precipitaciones de 18:00 a 24:00 en mm
DESCASC
19-09-2019 30 (15:10) 14.6 (08:00) 22.3 9.17 (17:40) 5.56 (17:40) 0 0 0 0 0
18-09-2019 32 (15:30) 15.2 (08:20) 23.6 8.33 (16:30) 4.44 (17:00) 1.6 0 0 1.4 0.2
17-09-2019 31.4 (15:30) 14.5 (00:00) 22.9 8.89 (18:00) 4.44 (18:30) 0 0 0 0 0
16-09-2019 29.9 (15:20) 14.5 (00:00) 22.2 7.5 (16:00) 4.17 (16:00) 0 0 0 0 0
15-09-2019 31.5 (17:10) 16 (00:00) 23.8 6.94 (16:50) 3.33 (19:30) 0.2 0 0.2 0 0
14-09-2019 30.3 (14:30) 16 (00:00) 23.1 9.44 (01:50) 5 (01:50) 0.2 0.2 0 0 0
13-09-2019 27.4 (18:50) 12.6 (00:00) 20 6.94 (12:20) 3.89 (22:30) 0 0 0 0 0
12-09-2019 31.2 (17:10) 12.4 (00:00) 21.8 8.33 (17:40) 4.44 (18:20) 0 0 0 0 0
11-09-2019 25.3 (18:40) 13.3 (00:00) 19.3 12.22 (15:20) 6.67 (15:40) 0.4 0.2 0.2 0 0
10-09-2019 -- (--) -- (--) -- -- (--) -- (--) -- -- -- 5 5.4
09-09-2019 26.2 (14:50) 14.6 (06:10) 20.4 8.89 (17:40) 4.72 (17:40) 0 0 0 0 0
08-09-2019 26.4 (14:50) 12.5 (00:00) 19.4 9.72 (17:00) 5.56 (17:50) 0 0 0 0 0
07-09-2019 27.9 (16:50) 12.9 (00:00) 20.4 7.5 (17:40) 4.17 (17:40) 0 0 0 0 0
06-09-2019 27.1 (17:00) 13.5 (00:00) 20.3 7.22 (17:50) 3.33 (04:10) 0 0 0 0 0
05-09-2019 29.2 (16:20) 16.7 (00:00) 23 8.89 (19:30) 5 (16:40) 0 0 0 0 0
04-09-2019 31.4 (15:30) 14.5 (00:00) 22.9 7.5 (15:50) 4.17 (17:30) 0 0 0 0 0
03-09-2019 30.1 (16:40) 16.2 (00:00) 23.2 8.89 (17:20) 4.44 (17:20) 0 0 0 0 0
02-09-2019 28.4 (17:50) 18.7 (00:00) 23.6 8.33 (21:50) 3.89 (02:00) 0 0 0 0 0
01-09-2019 30.4 (17:00) 15.8 (00:00) 23.1 8.89 (18:30) 4.44 (19:00) 0 0 0 0 0
31-08-2019 34.6 (14:40) 17.5 (00:00) 26 11.67 (16:50) 5.83 (16:50) 27.2 0 0 27.2 0
30-08-2019 34.2 (15:20) 17.7 (00:00) 26 7.78 (15:40) 4.44 (16:00) 0 0 0 0 0
29-08-2019 33.1 (15:10) 18 (00:00) 25.5 8.33 (18:20) 4.17 (17:40) 0 0 0 0 0
28-08-2019 32 (16:50) 17.7 (00:00) 24.9 7.5 (18:20) 3.89 (18:20) 0 0 0 0 0
27-08-2019 25.6 (13:10) 19.7 (00:00) 22.7 7.22 (14:30) 3.89 (14:30) 9.2 0 0.2 9 0
26-08-2019 33.3 (14:20) 15.5 (00:00) 24.4 8.61 (15:30) 4.44 (15:50) 0 0 0 0 0
25-08-2019 34.9 (15:20) 17.5 (00:00) 26.2 9.72 (17:00) 5 (17:20) 0 0 0 0 0
24-08-2019 33.7 (15:20) 16.9 (00:00) 25.3 10 (17:30) 5 (18:30) 0 0 0 0 0
23-08-2019 32.5 (15:40) 16.1 (00:00) 24.3 9.17 (18:50) 5.28 (17:40) 0 0 0 0 0
22-08-2019 32.7 (16:40) 19 (00:00) 25.9 10 (16:50) 5.28 (17:40) 0 0 0 0 0
21-08-2019 31.4 (16:20) 14.4 (00:00) 22.9 10.28 (17:40) 5 (18:00) 0 0 0 0 0

Gráficas

Temp. máximas Temp. mínimas Temp. medias Precipitaciones Rachas de viento máximas Velocidades máximas media en intervalos de 10 minutos

Datos horarios

Fecha y hora oficial Temperatura (ºC) Velocidad del viento (km/h) Dirección del viento Racha (km/h) Dirección de racha Precipitación (mm) Presión (hPa) Tendencia (hPa) Humedad (%)
2019-09-19 23:00:00 19.3 4 Sudeste 10 Este 0 985.6 1.6 69
2019-09-19 22:00:00 20.3 8 Nordeste 16 Norte 0 985.5 2 63
2019-09-19 21:00:00 21.9 2 Norte 10 Sudeste 0 984.5 1.8 55
2019-09-19 20:00:00 23.3 4 Sudeste 21 Sudeste 0 984 1.6 50
2019-09-19 19:00:00 24.3 9 Sur 28 Sudoeste 0 983.5 1.5 51
2019-09-19 18:00:00 25.4 16 Sur 33 Sudoeste 0 982.7 0.1 50
2019-09-19 17:00:00 26.5 13 Sur 28 Sur 0 982.4 -0.9 50
2019-09-19 16:00:00 28 11 Sur 22 Sur 0 982 -2 36
2019-09-19 15:00:00 29.5 5 Sur 15 Sur 0 982.6 -2.2 32
2019-09-19 14:00:00 28.3 6 Sur 13 Sur 0 983.3 -1.6 38
2019-09-19 13:00:00 25.3 4 Este 9 Norte 0 984 -0.9 46
2019-09-19 12:00:00 22 5 Norte 9 Nordeste 0 984.8 0.2 60
2019-09-19 11:00:00 19.4 4 Norte 7 Nordeste 0 984.9 0.6 69
2019-09-19 10:00:00 16.5 4 Nordeste 8 Nordeste 0 984.9 1 81
2019-09-19 09:00:00 15.3 4 Nordeste 8 Norte 0 984.6 0.9 86
2019-09-19 08:00:00 14.6 3 Norte 7 Este 0 984.3 0.7 88
2019-09-19 07:00:00 15 4 Nordeste 7 Este 0 983.9 0.1 89
2019-09-19 06:00:00 15.4 3 Nordeste 8 Oeste 0 983.7 -0.3 88
2019-09-19 05:00:00 15.7 3 Nordeste 10 Nordeste 0 983.6 -0.2 88
2019-09-19 04:00:00 16.2 3 Nordeste 8 Nordeste 0 983.8 0.2 88
2019-09-19 03:00:00 16.6 3 Norte 9 Oeste 0 984 0.5 86
2019-09-19 02:00:00 16.8 3 Noroeste 7 Nordeste 0 983.8 0.5 84
2019-09-19 01:00:00 17.4 5 Norte 9 Norte 0 983.6 0.2 81
2019-09-19 00:00:00 18 3 Norte 14 Este 0 983.5 0.2 80
2019-09-18 23:00:00 19.1 10 Nordeste 16 Nordeste 0 983.3 0.9 73
2019-09-18 22:00:00 20.3 3 Nordeste 17 Nordeste 0.2 983.4 1.1 68
2019-09-18 21:00:00 22.3 7 Nordeste 19 Nordeste 0 983.3 2.3 56
2019-09-18 20:00:00 23.6 10 Nordeste 18 Este 0 982.4 1.8 49
2019-09-18 19:00:00 26 8 Este 20 Este 0 982.3 1.5 45
2019-09-18 18:00:00 25.6 9 Sur 28 Sudoeste 0 981 0.4 57
2019-09-18 17:00:00 26.9 16 Sur 30 Sudoeste 0.2 980.6 -0.7 51
2019-09-18 16:00:00 28.3 10 Sur 27 Sudoeste 1.2 980.8 -1.1 50
2019-09-18 15:00:00 31.7 12 Sur 24 Sur 0 980.6 -1.7 29
2019-09-18 14:00:00 30.7 6 Sur 13 Sudoeste 0 981.3 -1.1 33
2019-09-18 13:00:00 27.8 3 Norte 8 Este 0 981.9 -0.4 41
2019-09-18 12:00:00 25.3 3 Sudeste 9 Nordeste 0 982.3 0.5 48
2019-09-18 11:00:00 22 2 Este 9 Nordeste 0 982.4 1.3 60
2019-09-18 10:00:00 19.6 3 Nordeste 7 Nordeste 0 982.3 1.4 67
2019-09-18 09:00:00 15.8 3 Oeste 5 Oeste 0 981.8 1.1 80
2019-09-18 08:00:00 15.4 3 Norte 8 Nordeste 0 981.1 0.3 83
2019-09-18 07:00:00 15.4 3 Nordeste 7 Oeste 0 980.9 -0.2 80
2019-09-18 06:00:00 16 3 Oeste 8 Nordeste 0 980.7 -1 78
2019-09-18 05:00:00 16.5 2 Norte 9 Este 0 980.8 -0.9 78
2019-09-18 04:00:00 17.4 8 Nordeste 13 Este 0 981.1 -1.1 76
2019-09-18 03:00:00 17.8 3 Oeste 9 Nordeste 0 981.7 -1 71
2019-09-18 02:00:00 18 5 Nordeste 9 Norte 0 981.7 -0.3 74
2019-09-18 01:00:00 19 5 Nordeste 9 Nordeste 0 982.2 0.7 68
2019-09-18 00:00:00 20 3 Sudoeste 7 Oeste 0 982.7 2 60
2019-09-17 23:00:00 21.1 2 Sudoeste 5 Oeste 0 982 1.5 57
2019-09-17 22:00:00 22.8 3 Sudeste 7 Sur 0 981.5 0.8 50
2019-09-17 21:00:00 23.8 3 Sudoeste 15 Sur 0 980.7 0.2 45
2019-09-15 18:00:00 30.3 9 Sudeste 23 Este 0 986.6 -1.1 26
2019-09-15 17:00:00 31.3 8 Sur 25 Sudeste 0 986.6 -2 26
2019-09-15 16:00:00 31.1 5 Este 19 Sur 0 987.1 -2.1 26
2019-09-15 15:00:00 30.3 6 Sudoeste 13 Sudoeste 0 987.7 -1.7 24
2019-09-15 14:00:00 28.7 6 Sudoeste 12 Nordeste 0 988.6 -1 28
2019-09-15 13:00:00 26.2 3 Sudoeste 14 Sur 0 989.2 -0.3 35
2019-09-15 12:00:00 23.2 4 Sudoeste 7 Nordeste 0.2 989.4 0.3 58
2019-09-15 11:00:00 22.5 2 Nordeste 6 Oeste 0 989.6 0.4 50
2019-09-15 10:00:00 19 6 Noroeste 10 Oeste 0 989.5 0.8 60
2019-09-15 09:00:00 17.1 0 Calma 5 Nordeste 0 989.1 0 69
2019-09-15 08:00:00 16.1 0 Calma 7 Sudeste 0 989.2 -0.2 70
2019-09-15 07:00:00 16.8 3 Sudeste 5 Sur 0 988.7 -1.6 69
2019-09-15 06:00:00 17.4 0 Calma 4 Oeste 0 989.1 -1.6 65
2019-09-15 05:00:00 18.7 2 Sur 9 Norte 0 989.4 -0.8 59
2019-09-15 04:00:00 19.2 5 Este 9 Este 0 990.3 0.4 64
2019-09-15 03:00:00 19.9 3 Norte 12 Sur 0 990.7 0.2 59
2019-09-15 02:00:00 20.4 5 Sur 9 Sudoeste 0 990.2 -0.5 56
2019-09-15 01:00:00 20.4 3 Nordeste 8 Nordeste 0 989.9 -0.5 57
2019-09-15 00:00:00 21.7 5 Nordeste 9 Nordeste 0 990.5 0.9 52
2019-09-14 23:00:00 22.7 2 Este 9 Sudeste 0 990.7 1.6 51
2019-09-14 22:00:00 23.8 3 Sudeste 13 Sur 0 990.4 1.1 44
2019-09-14 21:00:00 24.2 6 Sur 15 Sur 0 989.6 0.4 47
2019-09-14 20:00:00 26.3 5 Sur 15 Sudeste 0 989.1 -0.3 36
2019-09-14 19:00:00 28.4 5 Este 17 Sudeste 0 989.3 -0.5 28
2019-09-14 18:00:00 29.2 5 Sudeste 22 Sur 0 989.2 -1.3 27
2019-09-14 17:00:00 29.8 4 Sudeste 17 Este 0 989.4 -1.5 27
2019-09-14 16:00:00 29.6 3 Sur 21 Sudoeste 0 989.8 -2 29
2019-09-14 15:00:00 29.5 5 Sudoeste 15 Sudoeste 0 990.5 -2.3 27
2019-09-14 14:00:00 28.9 5 Norte 21 Sudeste 0 990.9 -1 30
2019-09-14 13:00:00 27.9 5 Oeste 13 Oeste 0 991.8 0.1 33
2019-09-14 12:00:00 25.5 7 Sur 13 Sur 0 992.8 1.2 41
2019-09-14 11:00:00 22.7 3 Sudoeste 5 Sudoeste 0 991.9 0.7 54
2019-09-14 10:00:00 19.7 3 Nordeste 10 Nordeste 0 991.7 1 67
2019-09-14 09:00:00 16.8 6 Nordeste 10 Nordeste 0 991.6 0.5 77
2019-09-14 08:00:00 16.2 3 Sudeste 6 Sudoeste 0 991.2 0 79
2019-09-14 07:00:00 16.5 0 Calma 5 Noroeste 0 990.7 -1.1 79
2019-09-14 06:00:00 17.1 3 Nordeste 5 Nordeste 0 991.1 -1.2 75
2019-09-14 05:00:00 18.1 3 Nordeste 12 Norte 0 991.2 -0.8 73
2019-09-14 04:00:00 18.5 2 Norte 10 Nordeste 0 991.8 -2.7 73
2019-09-14 03:00:00 18.9 5 Nordeste 18 Nordeste 0 992.3 -2.9 71
2019-09-14 02:00:00 18.8 13 Norte 34 Nordeste 0 992 -1.8 73
2019-09-14 01:00:00 19.4 3 Nordeste 11 Oeste 0.2 994.5 2 74
2019-09-14 00:00:00 21.4 6 Sudoeste 14 Sudoeste 0 995.2 3.5 57
2019-09-13 23:00:00 21.7 6 Sudoeste 20 Sudoeste 0 993.8 2.7 57
2019-09-13 22:00:00 22.9 8 Sur 23 Sur 0 992.5 1.6 53
2019-09-13 21:00:00 23.1 4 Sur 6 Sudoeste 0 991.7 1.1 47
2019-09-13 20:00:00 25.7 0 Calma 12 Este 0 991.1 -1.1 37
2019-09-13 19:00:00 27.2 4 Este 18 Nordeste 0 990.9 -1.5 31
2019-09-13 18:00:00 26.7 9 Nordeste 18 Este 0 990.6 -3.2 34
2019-09-13 17:00:00 26.7 3 Sur 11 Este 0 992.2 -2.3 42
2019-09-13 16:00:00 25.7 3 Noroeste 8 Sudoeste 0 992.4 -2.9 43
2019-09-13 15:00:00 25.7 2 Oeste 17 Nordeste 0 993.8 -1.8 43
2019-09-13 14:00:00 24.3 6 Norte 15 Nordeste 0 994.5 0.9 47
2019-09-13 13:00:00 23.4 4 Sur 25 Sur 0 995.3 2.4 46
2019-09-13 12:00:00 20.4 8 Sur 17 Sudeste 0 995.6 2.3 51
2019-09-13 11:00:00 18.1 6 Sur 15 Sur 0 993.6 -0.5 59
2019-09-13 10:00:00 15.6 4 Sudoeste 11 Nordeste 0 992.9 -1.4 70
2019-09-13 09:00:00 13.3 6 Nordeste 10 Nordeste 0 993.3 -0.8 80
2019-09-13 08:00:00 12.8 2 Nordeste 8 Nordeste 0 994.1 0.1 81
2019-09-13 07:00:00 13 0 Calma 6 Norte 0 994.3 0.2 81
2019-09-13 06:00:00 13.3 2 Noroeste 6 Oeste 0 994.1 0 82
2019-09-13 05:00:00 13.9 3 Nordeste 6 Nordeste 0 994 -0.9 79
2019-09-13 04:00:00 14.4 2 Oeste 5 Oeste 0 994.1 -0.7 77
2019-09-13 03:00:00 14.9 2 Nordeste 9 Nordeste 0 994.1 -0.4 75
2019-09-13 02:00:00 16.1 2 Norte 7 Nordeste 0 994.9 1.2 73
2019-09-13 01:00:00 17 3 Noroeste 7 Sudoeste 0 994.8 1.2 71
2019-09-13 00:00:00 18.2 2 Oeste 7 Sudoeste 0 994.5 1.5 68
2019-09-12 23:00:00 19.6 0 Calma 7 Oeste 0 993.7 1 61
2019-09-12 22:00:00 21.6 4 Sudoeste 7 Sudoeste 0 993.6 1.5 55
2019-09-12 21:00:00 23.2 3 Sur 22 Sur 0 993 1.4 47
2019-09-12 20:00:00 25.1 11 Sur 23 Sur 0 992.7 1.3 40
2019-09-12 19:00:00 26.8 12 Sur 27 Sur 0 992.1 0 37
2019-09-12 18:00:00 28.7 16 Sur 30 Sudoeste 0 991.6 -1 34
2019-09-12 17:00:00 30.9 4 Norte 13 Nordeste 0 991.4 -1.8 19
2019-09-12 16:00:00 30.2 6 Nordeste 11 Este 0 992.1 -1.7 19
2019-09-12 15:00:00 29.7 4 Oeste 11 Noroeste 0 992.6 -1.7 23
2019-09-12 14:00:00 27.7 3 Noroeste 11 Sur 0 993.2 -1.4 32
2019-09-12 13:00:00 25.4 5 Sur 11 Sur 0 993.8 -0.8 42
2019-09-12 12:00:00 22.5 4 Nordeste 14 Nordeste 0 994.3 0.9 52
2019-09-12 11:00:00 19.4 4 Norte 10 Norte 0 994.6 1.5 57
2019-09-12 10:00:00 16.3 6 Nordeste 10 Nordeste 0 994.6 2.1 70
2019-09-12 09:00:00 12.9 5 Nordeste 8 Nordeste 0 993.4 1.1 85
2019-09-12 08:00:00 12.5 4 Nordeste 8 Nordeste 0 993.1 1.1 87
2019-09-12 07:00:00 12.5 2 Nordeste 7 Oeste 0 992.5 0.6 88
2019-09-12 06:00:00 12.8 0 Calma 10 Norte 0 992.3 0.8 86
2019-09-12 05:00:00 13.5 7 Nordeste 11 Nordeste 0 992 0.7 85
2019-09-12 04:00:00 14.1 6 Nordeste 9 Norte 0 991.9 1.1 84
2019-09-12 03:00:00 15 5 Nordeste 9 Norte 0 991.5 0.7 82
2019-09-12 02:00:00 15.7 2 Nordeste 8 Nordeste 0 991.3 0.8 78
2019-09-12 01:00:00 16.7 3 Norte 9 Oeste 0 990.8 0.7 73
2019-09-12 00:00:00 17.2 2 Sudoeste 4 Noroeste 0 990.8 1.3 73
2019-09-11 23:00:00 18.8 3 Noroeste 12 Nordeste 0 990.5 1.9 68
2019-09-11 22:00:00 20.6 5 Nordeste 12 Norte 0 990.1 1.5 55
2019-09-11 21:00:00 21.9 4 Este 19 Nordeste 0 989.5 1.7 51
2019-09-11 20:00:00 23.5 9 Nordeste 23 Este 0 988.6 1 45
2019-09-11 19:00:00 25 8 Nordeste 19 Nordeste 0 988.6 1.3 41
2019-09-11 18:00:00 25 11 Nordeste 26 Nordeste 0 987.8 0 43
2019-09-11 17:00:00 24.5 14 Nordeste 37 Nordeste 0 987.6 0 43
2019-09-11 16:00:00 24.2 20 Nordeste 44 Nordeste 0 987.3 0 46
2019-09-11 15:00:00 22.9 20 Nordeste 38 Este 0 987.8 1.1 50
2019-09-11 14:00:00 21.8 15 Nordeste 40 Este 0 987.6 1.6 54
2019-09-11 13:00:00 20.7 16 Nordeste 38 Nordeste 0 987.3 2.7 57
2019-09-11 12:00:00 19.8 10 Nordeste 31 Este 0 986.7 3.2 63
2019-09-11 11:00:00 18.4 11 Nordeste 25 Nordeste 0 986 3.6 68
2019-09-11 10:00:00 16.1 3 Nordeste 10 Nordeste 0 984.6 3.5 84
2019-09-11 09:00:00 15.6 3 Noroeste 13 Nordeste 0 983.5 2.9 82
2019-09-11 08:00:00 15.8 9 Nordeste 22 Nordeste 0.2 982.4 2.5 80
2019-09-11 07:00:00 14.3 0 Calma 10 Norte 0 981.1 1 86
2019-09-11 06:00:00 14.3 5 Nordeste 14 Norte 0 980.6 0.1 84
2019-09-11 05:00:00 14.1 4 Norte 17 Nordeste 0 979.9 -0.4 85
2019-09-11 04:00:00 13.7 4 Norte 12 Nordeste 0 980.1 0.4 87
2019-09-11 03:00:00 13.8 4 Norte 12 Norte 0 980.5 1.2 88
2019-09-11 02:00:00 13.7 4 Norte 11 Oeste 0 980.3 0.7 88
2019-09-11 01:00:00 13.7 2 Noroeste 12 Nordeste 0.2 979.7 1 91
2019-09-11 00:00:00 13.4 7 Oeste 12 Oeste 1 979.3 0.8 92
2019-09-10 23:00:00 13.8 3 Sudeste 7 Noroeste 1.2 979.6 1.6 91
2019-09-10 22:00:00 13.9 0 Calma 9 Oeste 0 978.7 1.4 90
2019-09-10 21:00:00 14 5 Oeste 10 Oeste 2.2 978.5 0.7 92
2019-09-10 20:00:00 14.2 3 Noroeste 15 Nordeste 0.8 978 0.3 90
2019-09-10 19:00:00 14.4 8 Nordeste 13 Nordeste 0.2 977.3 0.3 89
2019-09-10 18:00:00 14.2 2 Este 10 Sur 0.6 977.8 0.4 86
2019-09-10 17:00:00 14.4 2 Sudeste 9 Nordeste 0.8 977.7 -0.1 85
2019-09-10 16:00:00 14.4 4 Oeste 12 Oeste 0.2 977 -0.4 84
2019-09-10 15:00:00 14.2 5 Oeste 12 Nordeste 1.8 977.4 0.3 89
2019-09-10 14:00:00 14 5 Noroeste 14 Oeste 1.2 977.8 -- 84
2019-09-10 13:00:00 14.9 4 Noroeste 13 Norte 0.4 977.4 -- 82
2019-09-10 12:00:00 15.3 4 Noroeste -- -- -- 977.1 -- 83
2019-09-10 11:00:00 -- -- -- -- -- -- -- -- --
2019-09-10 10:00:00 -- -- -- -- -- -- -- -- --
2019-09-10 09:00:00 -- -- -- -- -- -- -- -- --
2019-09-10 08:00:00 -- -- -- -- -- -- -- -- --
2019-09-10 07:00:00 -- -- -- -- -- -- -- -- --
2019-09-10 06:00:00 -- -- -- -- -- -- -- -- --
2019-09-10 05:00:00 -- -- -- -- -- -- -- -- --
2019-09-10 04:00:00 -- -- -- -- -- -- -- -- --
2019-09-10 03:00:00 -- -- -- -- -- -- -- -- --
2019-09-10 02:00:00 -- -- -- -- -- -- -- -- --
2019-09-10 01:00:00 20.1 6 Nordeste 11 Nordeste 0.2 977.1 -1.6 85
2019-09-10 00:00:00 21 2 Este 8 Sudeste 0 978.3 -0.1 79
2019-09-09 23:00:00 20.9 3 Sudeste 12 Sur 0 978.8 0.9 78
2019-09-09 22:00:00 21.3 4 Sur 16 Sur 0 978.7 0.8 74
2019-09-09 21:00:00 21.9 7 Sur 27 Sur 0 978.4 0.1 70
2019-09-09 20:00:00 23.1 12 Sur 28 Sur 0 977.9 -0.6 63
2019-09-09 19:00:00 24.9 14 Sur 29 Sur 0 977.9 -1.4 54
2019-09-09 18:00:00 25.5 15 Sur 32 Sudoeste 0 978.3 -1.9 50
2019-09-09 17:00:00 25.8 13 Sur 28 Sur 0 978.5 -3 46
2019-09-09 16:00:00 25.8 13 Sur 31 Sur 0 979.3 -3.2 46
2019-09-09 15:00:00 25.6 15 Sur 31 Sur 0 980.2 -3.2 44
2019-09-09 14:00:00 24.9 10 Sur 20 Sur 0 981.5 -2.2 47
2019-09-09 13:00:00 23.3 8 Sur 17 Sur 0 982.5 -1.1 54
2019-09-09 12:00:00 21.4 3 Oeste 8 Oeste 0 983.4 -0.1 64
2019-09-09 11:00:00 18.9 0 Calma 5 Sudeste 0 983.7 0.2 74
2019-09-09 10:00:00 16.9 2 Oeste 6 Nordeste 0 983.6 0.1 80
2019-09-09 09:00:00 15.8 0 Calma 7 Nordeste 0 983.5 0 84
2019-09-09 08:00:00 14.7 2 Noroeste 4 Oeste 0 983.5 -0.3 87
2019-09-09 07:00:00 14.8 2 Norte 5 Sudoeste 0 983.5 -0.6 87
2019-09-09 06:00:00 14.7 2 Sur 6 Oeste 0 983.5 -1 88
2019-09-09 05:00:00 15.4 3 Sudoeste 7 Oeste 0 983.8 -0.8 86
2019-09-09 04:00:00 15.9 0 Calma 6 Sudoeste 0 984.1 -0.6 84
2019-09-09 03:00:00 16.5 2 Nordeste 5 Noroeste 0 984.5 -0.4 81
2019-09-09 02:00:00 17.6 3 Nordeste 8 Nordeste 0 984.6 -0.1 77
2019-09-09 01:00:00 17.8 5 Norte 8 Norte 0 984.7 0.3 78
2019-09-09 00:00:00 17.3 2 Norte 5 Nordeste 0 984.9 1.4 80
2019-09-08 23:00:00 18 2 Oeste 12 Sur 0 984.7 2.2 78
2019-09-08 22:00:00 19 6 Sur 19 Sudeste 0 984.4 2.3 74
2019-09-08 21:00:00 19.4 8 Sur 25 Sur 0 983.5 1.5 73
2019-09-08 20:00:00 20.6 13 Sur 32 Sudoeste 0 982.5 0.7 67
2019-09-08 19:00:00 21.8 18 Sur 34 Sur 0 982.1 0.1 63
2019-09-08 18:00:00 23.2 17 Sur 33 Sudoeste 0 982 -0.5 58
2019-09-08 17:00:00 23.5 16 Sur 35 Sur 0 981.8 -1.1 56
2019-09-08 16:00:00 25.2 16 Sur 31 Sur 0 982 -1.6 50
2019-09-08 15:00:00 26.1 9 Sur 25 Sudoeste 0 982.5 -1.6 35
2019-09-08 14:00:00 25.2 11 Sur 26 Sudoeste 0 982.9 -2 39
2019-09-08 13:00:00 23.6 6 Sur 18 Sur 0 983.6 -1.5 44
2019-09-08 12:00:00 20.9 5 Oeste 10 Norte 0 984.1 -0.9 51
2019-09-08 11:00:00 19 5 Nordeste 12 Nordeste 0 984.9 0.2 58
2019-09-08 10:00:00 16.7 3 Nordeste 8 Este 0 985.1 0.7 65
2019-09-08 09:00:00 13.4 4 Nordeste 7 Nordeste 0 985 0.7 79
2019-09-08 08:00:00 12.7 4 Nordeste 8 Nordeste 0 984.7 0.1 80
2019-09-08 07:00:00 12.7 3 Oeste 6 Oeste 0 984.4 -0.6 80
2019-09-08 06:00:00 13.2 3 Norte 6 Noroeste 0 984.3 -1.1 76
2019-09-08 05:00:00 13.6 3 Noroeste 13 Oeste 0 984.6 -0.9 74
2019-09-08 04:00:00 14.5 3 Noroeste 10 Oeste 0 985 -0.6 72
2019-09-08 03:00:00 15.4 4 Norte 8 Nordeste 0 985.4 -0.4 70
2019-09-08 02:00:00 16.3 3 Norte 7 Norte 0 985.5 -0.1 73
2019-09-08 01:00:00 17 4 Oeste 8 Oeste 0 985.6 0.5 68
2019-09-08 00:00:00 18.4 4 Oeste 6 Oeste 0 985.8 1.7 67
2019-09-07 23:00:00 19.4 4 Oeste 12 Sur 0 985.6 2.1 68
2019-09-07 22:00:00 20.6 7 Sur 19 Sur 0 985.1 1.8 70
2019-09-07 21:00:00 21.3 9 Sur 21 Sur 0 984.1 0.7 68
2019-09-07 20:00:00 23.2 10 Sur 27 Sur 0 983.5 -0.2 57
2019-09-07 19:00:00 24.2 11 Sur 25 Sur 0 983.3 -1 49
2019-09-07 18:00:00 25.5 15 Sur 27 Sudoeste 0 983.4 -1.7 42
2019-09-07 17:00:00 27.6 10 Oeste 19 Oeste 0 983.7 -2.1 19
2019-09-07 16:00:00 27.1 6 Sur 14 Sur 0 984.3 -2.2 21
2019-09-07 15:00:00 26.2 6 Sudeste 16 Sur 0 985.1 -2.4 26
2019-09-07 14:00:00 24 5 Nordeste 12 Sudeste 0 985.8 -2 31
2019-09-07 13:00:00 21.5 5 Nordeste 12 Norte 0 986.5 -1.5 35
2019-09-07 12:00:00 20 4 Nordeste 11 Nordeste 0 987.5 -0.3 44
2019-09-07 11:00:00 18 5 Nordeste 10 Nordeste 0 987.8 0.5 51
2019-09-07 10:00:00 16.2 6 Nordeste 10 Nordeste 0 988 1.3 58
2019-09-07 09:00:00 13.4 4 Este 9 Nordeste 0 987.8 1.1 71
2019-09-07 08:00:00 13 3 Norte 12 Noroeste 0 987.3 0.5 75
2019-09-07 07:00:00 14 5 Norte 13 Nordeste 0 986.7 -0.2 64
2019-09-07 06:00:00 14.7 6 Noroeste 19 Noroeste 0 986.7 0 62
2019-09-07 05:00:00 14.8 5 Norte 14 Noroeste 0 986.8 0.1 62
2019-09-07 04:00:00 14.6 3 Norte 8 Noroeste 0 986.9 0.2 65
2019-09-07 03:00:00 15.1 3 Norte 9 Noroeste 0 986.7 0.5 64
2019-09-07 02:00:00 15.9 4 Nordeste 8 Norte 0 986.7 0.7 64
2019-09-07 01:00:00 16.9 4 Nordeste 8 Nordeste 0 986.7 1.2 61
2019-09-07 00:00:00 17.7 3 Oeste 6 Oeste 0 986.2 1.4 59
2019-09-06 23:00:00 19.2 3 Nordeste 17 Sur 0 986 2 55
2019-09-06 22:00:00 20.6 9 Sur 22 Sur 0 985.5 1.8 50
2019-09-06 21:00:00 21.9 10 Sur 23 Sur 0 984.8 1.2 46
2019-09-06 20:00:00 24.4 11 Sur 20 Sur 0 984 0.2 34
2019-09-06 19:00:00 26.1 12 Oeste 22 Noroeste 0 983.7 -0.7 19
2019-09-06 18:00:00 26.7 10 Oeste 26 Oeste 0 983.6 -1.4 19
2019-09-06 17:00:00 26.9 9 Oeste 22 Oeste 0 983.8 -1.6 20
2019-09-06 16:00:00 26.6 11 Oeste 23 Oeste 0 984.4 -1.4 22
2019-09-06 15:00:00 25.6 8 Oeste 19 Oeste 0 985 -1.2 26
2019-09-06 14:00:00 24.3 5 Noroeste 15 Oeste 0 985.4 -1.2 32
2019-09-06 13:00:00 22.5 3 Nordeste 12 Norte 0 985.8 -0.8 37
2019-09-06 12:00:00 20.4 6 Este 18 Nordeste 0 986.2 -0.6 42
2019-09-06 11:00:00 18.4 8 Nordeste 15 Nordeste 0 986.6 0.1 48
2019-09-06 10:00:00 16.6 6 Nordeste 12 Nordeste 0 986.6 0.6 56
2019-09-06 09:00:00 13.8 2 Nordeste 11 Oeste 0 986.8 0.8 67
2019-09-06 08:00:00 14 7 Noroeste 16 Oeste 0 986.5 0.8 63
2019-09-06 07:00:00 14.2 4 Oeste 17 Oeste 0 986 0.4 63
2019-09-06 06:00:00 15.1 12 Noroeste 22 Noroeste 0 986 0.3 59
2019-09-06 05:00:00 15.9 9 Noroeste 25 Noroeste 0 985.7 0.1 55
2019-09-06 04:00:00 16.6 10 Noroeste 24 Oeste 0 985.6 0.2 51
2019-09-06 03:00:00 17.6 12 Oeste 21 Noroeste 0 985.7 0.5 44
2019-09-06 02:00:00 18.1 6 Oeste 14 Oeste 0 985.6 0.7 56
2019-09-06 01:00:00 18.8 0 Calma 12 Sudoeste 0 985.4 0.8 75
2019-09-06 00:00:00 19.5 8 Sur 13 Sudoeste 0 985.2 1.5 73
2019-09-05 23:00:00 20.2 9 Sur 21 Sudoeste 0 984.9 2 74
2019-09-05 22:00:00 21.3 10 Sur 22 Sur 0 984.6 2.3 71
2019-09-05 21:00:00 21.6 9 Sur 25 Sur 0 983.7 1.7 70
2019-09-05 20:00:00 22.9 13 Sur 32 Sur 0 982.9 0.8 65
2019-09-05 19:00:00 25.2 14 Sur 28 Sur 0 982.3 -0.1 53
2019-09-05 18:00:00 25.1 12 Sur 29 Sudeste 0 982 -1.2 52
2019-09-05 17:00:00 26.2 15 Sur 30 Sudoeste 0 982.1 -1.6 49
2019-09-05 16:00:00 28.3 9 Sudoeste 21 Oeste 0 982.4 -1.9 32
2019-09-05 15:00:00 28.1 8 Sur 19 Sudoeste 0 983.2 -1.6 33
2019-09-05 14:00:00 25.8 4 Oeste 12 Sudoeste 0 983.7 -1.4 40
2019-09-05 13:00:00 23.5 5 Nordeste 13 Nordeste 0 984.3 -1 46
2019-09-05 12:00:00 21.9 4 Nordeste 13 Nordeste 0 984.8 -0.4 49
2019-09-05 11:00:00 19.6 4 Nordeste 9 Norte 0 985.1 0.6 57
2019-09-05 10:00:00 18.7 3 Nordeste 12 Oeste 0 985.3 1.2 59
2019-09-05 09:00:00 17.3 4 Noroeste 21 Noroeste 0 985.2 1.7 63
2019-09-05 08:00:00 16.7 7 Oeste 21 Noroeste 0 984.5 0.9 64
2019-09-05 07:00:00 17 10 Oeste 26 Oeste 0 984.1 0.4 64
2019-09-05 06:00:00 17.7 8 Noroeste 22 Oeste 0 983.5 -0.3 63
2019-09-05 05:00:00 18.6 9 Oeste 21 Noroeste 0 983.6 -0.2 62
2019-09-05 04:00:00 19.1 4 Norte 13 Noroeste 0 983.7 0 78
2019-09-05 03:00:00 18.9 5 Nordeste 11 Oeste 0 983.8 0 80
2019-09-05 02:00:00 19.5 0 Calma 6 Oeste 0 983.8 0.1 82
2019-09-05 01:00:00 21.1 3 Sudoeste 17 Sudoeste 0 983.7 0.2 79
2019-09-05 00:00:00 22.4 7 Sur 16 Sur 0 983.8 1.3 75
2019-09-04 23:00:00 23.1 6 Sur 17 Sur 0 983.7 1.6 70
2019-09-04 22:00:00 24 7 Sur 22 Sur 0 983.5 1.4 62
2019-09-04 21:00:00 25.2 10 Sur 23 Sur 0 982.5 0.4 52
2019-09-04 20:00:00 27.2 11 Sur 24 Sudoeste 0 982.1 -0.3 44
2019-09-04 19:00:00 28.5 14 Sur 27 Sur 0 982.1 -0.7 39
2019-09-04 18:00:00 30.4 12 Sur 25 Sur 0 982.1 -1.2 32
2019-09-04 17:00:00 31 11 Sur 24 Sudoeste 0 982.4 -1.6 30
2019-09-04 16:00:00 30.7 13 Sur 27 Sur 0 982.8 -2 32
2019-09-04 15:00:00 30.4 11 Sur 22 Sudoeste 0 983.3 -2.3 30
2019-09-04 14:00:00 29.6 9 Sur 21 Sur 0 984 -2 32
2019-09-04 13:00:00 27.4 3 Sudeste 8 Oeste 0 984.8 -1.4 42
2019-09-04 12:00:00 24.4 3 Norte 9 Nordeste 0 985.6 -0.6 56
2019-09-04 11:00:00 21.3 3 Noroeste 9 Nordeste 0 986 -0.2 66
2019-09-04 10:00:00 18.6 5 Nordeste 10 Norte 0 986.2 0.1 76
2019-09-04 09:00:00 15.6 4 Nordeste 7 Norte 0 986.2 0.1 87
2019-09-04 08:00:00 14.5 2 Oeste 5 Oeste 0 986.2 -0.2 86
2019-09-04 07:00:00 14.7 0 Calma 4 Noroeste 0 986.1 -0.8 86
2019-09-04 06:00:00 15.4 2 Oeste 5 Oeste 0 986.1 -1.2 84
2019-09-04 05:00:00 16.1 2 Norte 6 Norte 0 986.4 -1.2 83
2019-09-04 04:00:00 16.7 2 Noroeste 5 Noroeste 0 986.9 -0.7 80
2019-09-04 03:00:00 17.6 2 Nordeste 7 Norte 0 987.3 -0.1 79
2019-09-04 02:00:00 18 3 Nordeste 8 Nordeste 0 987.6 0.4 82
2019-09-04 01:00:00 18.8 2 Sudeste 8 Oeste 0 987.6 0.8 72
2019-09-04 00:00:00 20.5 3 Oeste 8 Sur 0 987.4 1.2 68
2019-09-03 23:00:00 21.8 5 Sur 15 Sur 0 987.2 1.5 68
2019-09-03 22:00:00 22.7 6 Sur 21 Sur 0 986.8 1.3 66
2019-09-03 21:00:00 24 8 Sur 21 Sudoeste 0 986.2 0.6 57
2019-09-03 20:00:00 25.5 11 Sur 26 Sudoeste 0 985.7 0.2 48
2019-09-03 19:00:00 27.1 13 Sur 28 Sur 0 985.5 -0.4 44
2019-09-03 18:00:00 28 15 Sur 32 Sudoeste 0 985.6 -0.7 41
2019-09-03 17:00:00 29.8 10 Sur 19 Sur 0 985.5 -1.4 34
2019-09-03 16:00:00 28.8 6 Nordeste 15 Nordeste 0 985.9 -1.6 30
2019-09-03 15:00:00 27.8 5 Este 15 Nordeste 0 986.3 -1.6 32
2019-09-03 14:00:00 26 5 Este 14 Nordeste 0 986.9 -1.4 37
2019-09-03 13:00:00 24.5 5 Este 14 Nordeste 0 987.5 -0.7 40
2019-09-03 12:00:00 22.5 6 Norte 14 Nordeste 0 987.9 0.1 45
2019-09-03 11:00:00 20.9 6 Nordeste 12 Nordeste 0 988.3 0.8 50
2019-09-03 10:00:00 19.2 6 Nordeste 12 Norte 0 988.2 0.9 56
2019-09-03 09:00:00 16.7 4 Norte 10 Nordeste 0 987.8 0.6 64
2019-09-03 08:00:00 16.7 3 Norte 19 Noroeste 0 987.5 0.4 64
2019-09-03 07:00:00 16.9 2 Noroeste 13 Oeste 0 987.3 0.2 62
2019-09-03 06:00:00 18.2 11 Oeste 26 Noroeste 0 987.2 0.1 56
2019-09-03 05:00:00 18.8 8 Oeste 18 Oeste 0 987.1 0.1 60
2019-09-03 04:00:00 19.4 3 Noroeste 8 Noroeste 0 987.1 0.3 79
2019-09-03 03:00:00 19.7 0 Calma 9 Nordeste 0 987.1 0.5 82
2019-09-03 02:00:00 20.3 4 Nordeste 8 Nordeste 0 987 0.6 80
2019-09-03 01:00:00 20.5 3 Nordeste 7 Sudeste 0 986.8 1.2 78
2019-09-03 00:00:00 21.3 4 Sur 16 Sur 0 986.6 1.9 74
2019-09-02 23:00:00 21.9 8 Sur 21 Sur 0 986.4 2.5 70
2019-09-02 22:00:00 22.2 12 Sur 30 Sur 0 985.6 2 70
2019-09-02 21:00:00 23.1 11 Sur 26 Sudoeste 0 984.7 1.3 61
2019-09-02 20:00:00 25.7 10 Sudoeste 23 Noroeste 0 983.9 0.3 52
2019-09-02 19:00:00 27.4 10 Oeste 24 Oeste 0 983.6 -0.3 37
2019-09-02 18:00:00 28.2 10 Oeste 23 Oeste 0 983.4 -1.1 36
2019-09-02 17:00:00 27.5 8 Oeste 19 Noroeste 0 983.6 -1.4 41
2019-09-02 16:00:00 28 10 Sudoeste 22 Oeste 0 983.9 -1.5 33
2019-09-02 15:00:00 26.8 8 Oeste 22 Oeste 0 984.5 -1 40
2019-09-02 14:00:00 25.6 10 Oeste 20 Oeste 0 985 -0.3 44
2019-09-02 13:00:00 24.3 9 Oeste 21 Oeste 0 985.4 0 53
2019-09-02 12:00:00 23 12 Nordeste 22 Nordeste 0 985.5 0.6 59
2019-09-02 11:00:00 22.2 9 Noroeste 19 Noroeste 0 985.3 1.2 61
2019-09-02 10:00:00 19.4 10 Oeste 23 Oeste 0 985.4 2.1 71
2019-09-02 09:00:00 19.2 6 Noroeste 13 Noroeste 0 984.9 1.9 74
2019-09-02 08:00:00 18.8 3 Nordeste 12 Norte 0 984.1 0.8 87
2019-09-02 07:00:00 19 5 Nordeste 8 Este 0 983.3 0.3 89
2019-09-02 06:00:00 19.8 4 Nordeste 8 Nordeste 0 983 -0.1 86
2019-09-02 05:00:00 19.5 3 Nordeste 13 Nordeste 0 983.3 0 87
2019-09-02 04:00:00 19.7 8 Nordeste 14 Nordeste 0 983 0.2 85
2019-09-02 03:00:00 19.9 5 Este 18 Nordeste 0 983.1 0.3 80
2019-09-02 02:00:00 20.6 14 Nordeste 23 Nordeste 0 983.3 0.7 79
2019-09-02 01:00:00 22.4 10 Nordeste 17 Nordeste 0 982.8 0.1 74
2019-09-02 00:00:00 22.8 6 Sur 15 Sur 0 982.8 1.4 75
2019-09-01 23:00:00 23.1 7 Sur 16 Sur 0 982.6 2.3 75
2019-09-01 22:00:00 23.4 8 Sur 20 Sudeste 0 982.7 2.8 73
2019-09-01 21:00:00 23.9 9 Sur 24 Sur 0 981.4 2.1 73
2019-09-01 20:00:00 24.7 13 Sur 27 Sur 0 980.3 1.3 70
2019-09-01 19:00:00 26.4 16 Sur 32 Sur 0 979.9 0.2 60
2019-09-01 18:00:00 28.2 14 Sur 28 Sur 0 979.3 -1 54
2019-09-01 17:00:00 30.4 11 Sur 23 Sudoeste 0 979 -2.1 40
2019-09-01 16:00:00 30.1 9 Sur 19 Sur 0 979.7 -2 39
2019-09-01 15:00:00 29.5 8 Sur 19 Sur 0 980.3 -1.6 40
2019-09-01 14:00:00 27.4 8 Sur 14 Sur 0 981.1 -0.8 46
2019-09-01 13:00:00 24.4 4 Sudeste 10 Oeste 0 981.7 -0.2 57
2019-09-01 12:00:00 21.9 3 Oeste 7 Oeste 0 981.9 0 68
2019-09-01 11:00:00 22.3 3 Noroeste 7 Norte 0 981.9 0.1 62
2019-09-01 10:00:00 18.9 3 Noroeste 6 Oeste 0 981.9 0.4 76
2019-09-01 09:00:00 16.8 0 Calma 5 Norte 0 981.9 0.1 85
2019-09-01 08:00:00 15.9 4 Nordeste 7 Nordeste 0 981.8 -0.3 89
2019-09-01 07:00:00 15.8 2 Noroeste 6 Oeste 0 981.5 -0.7 90
2019-09-01 06:00:00 16.3 3 Nordeste 6 Nordeste 0 981.8 -0.5 89
2019-09-01 05:00:00 16.9 0 Calma 5 Nordeste 0 982.1 -0.2 88
2019-09-01 04:00:00 17.3 2 Sudeste 12 Norte 0 982.2 -0.1 87
2019-09-01 03:00:00 17.6 3 Nordeste 12 Nordeste 0 982.3 0.3 87
2019-09-01 02:00:00 18.4 2 Nordeste 7 Nordeste 0 982.3 0.2 87
2019-09-01 01:00:00 19.4 3 Nordeste 6 Sudeste 0 982.3 0 83
2019-09-01 00:00:00 20 3 Sur 6 Oeste 0 982 0.3 82
2019-08-31 23:00:00 21.3 2 Norte 10 Este 0 982.1 -0.1 75
2019-08-31 22:00:00 22 6 Este 9 Este 0 982.3 0.2 71
2019-08-31 21:00:00 22.3 5 Oeste 13 Nordeste 0 981.7 -0.5 77
2019-08-31 20:00:00 22.7 7 Nordeste 14 Este 0 982.2 -1 75
2019-08-31 19:00:00 22.8 4 Noroeste 19 Oeste 0 982.1 2.1 65
2019-08-31 18:00:00 21.3 5 Oeste 22 Sur 6.2 982.2 1.5 78
2019-08-31 17:00:00 19.5 10 Sur 42 Norte 21 983.2 1.8 81
2019-08-31 16:00:00 32.2 19 Sur 34 Sudoeste 0 980 -2.4 34
2019-08-31 15:00:00 33.8 6 Sudoeste 22 Sudoeste 0 980.7 -2.3 25
2019-08-31 14:00:00 33.8 8 Sur 16 Sur 0 981.4 -2 25
2019-08-31 13:00:00 31.4 9 Sur 13 Sudoeste 0 982.4 -1.1 32
2019-08-31 12:00:00 28.5 3 Sur 6 Oeste 0 983 -0.5 43
2019-08-31 11:00:00 24.7 3 Oeste 6 Sudoeste 0 983.4 0 55
2019-08-31 10:00:00 21.7 3 Nordeste 6 Nordeste 0 983.5 0.3 66
2019-08-31 09:00:00 18.2 4 Nordeste 7 Norte 0 983.5 0.4 82
2019-08-31 08:00:00 17.5 3 Nordeste 6 Norte 0 983.4 0 85
2019-08-31 07:00:00 17.9 4 Nordeste 7 Nordeste 0 983.2 -0.6 84
2019-08-31 06:00:00 18.5 4 Nordeste 8 Nordeste 0 983.1 -1.1 84
2019-08-31 05:00:00 19.2 3 Nordeste 8 Nordeste 0 983.4 -1.1 83
2019-08-31 04:00:00 20.1 3 Nordeste 7 Nordeste 0 983.8 -1 80
2019-08-31 03:00:00 20.9 3 Nordeste 6 Nordeste 0 984.2 -0.9 77
2019-08-31 02:00:00 21.6 4 Norte 8 Nordeste 0 984.5 -0.8 77
2019-08-31 01:00:00 22.5 3 Nordeste 9 Nordeste 0 984.8 -0.4 75
2019-08-31 00:00:00 23.4 6 Nordeste 10 Nordeste 0 985.1 0.4 71
2019-08-30 23:00:00 25.3 6 Nordeste 11 Sudeste 0 985.3 1.1 63
2019-08-30 22:00:00 26.3 5 Sur 18 Sur 0 985.2 1 55
2019-08-30 21:00:00 27.5 5 Sur 20 Sudeste 0 984.7 0.5 51
2019-08-30 20:00:00 28.9 9 Sur 22 Sudoeste 0 984.2 -0.3 44
2019-08-30 19:00:00 30 8 Sur 22 Sur 0 984.2 -0.5 41
2019-08-30 18:00:00 30.3 10 Sur 25 Sur 0 984.2 -0.8 39
2019-08-30 17:00:00 31.4 13 Sur 27 Sur 0 984.5 -1.3 35
2019-08-30 16:00:00 33 16 Sur 28 Sur 0 984.7 -1.8 32
2019-08-30 15:00:00 33.9 8 Sur 21 Sudeste 0 985 -2.1 27
2019-08-30 14:00:00 32.4 8 Sur 21 Sur 0 985.8 -1.6 30
2019-08-30 13:00:00 30.8 6 Sudoeste 14 Sudoeste 0 986.5 -0.9 38
2019-08-30 12:00:00 26.3 4 Oeste 7 Noroeste 0 987.1 -0.5 54
2019-08-30 11:00:00 24.4 3 Oeste 8 Oeste 0 987.4 0 60
2019-08-30 10:00:00 21.7 5 Oeste 8 Oeste 0 987.4 0.5 68
2019-08-30 09:00:00 18.8 4 Nordeste 6 Norte 0 987.6 1 81
2019-08-30 08:00:00 18.2 5 Nordeste 10 Nordeste 0 987.4 0.9 83
2019-08-30 07:00:00 18 3 Norte 6 Nordeste 0 986.9 0.4 82
2019-08-30 06:00:00 18.4 2 Nordeste 4 Oeste 0 986.6 -0.1 80
2019-08-30 05:00:00 19 2 Oeste 6 Noroeste 0 986.5 -0.4 75
2019-08-30 04:00:00 19.6 2 Nordeste 4 Nordeste 0 986.5 -0.4 73
2019-08-30 03:00:00 20.2 2 Oeste 6 Noroeste 0 986.7 0.3 72
2019-08-30 02:00:00 21.2 0 Calma 7 Oeste 0 986.9 0.4 68
2019-08-30 01:00:00 22.1 3 Nordeste 6 Noroeste 0 986.9 0.5 64
2019-08-30 00:00:00 23.1 2 Nordeste 8 Sudeste 0 986.4 0.8 58
2019-08-29 23:00:00 24.1 2 Sudeste 8 Sur 0 986.5 1.5 57
2019-08-29 22:00:00 24.9 3 Sur 14 Sur 0 986.4 2 53
2019-08-29 21:00:00 26 5 Sur 26 Sur 0 985.6 1.5 50
2019-08-29 20:00:00 27.5 12 Sur 28 Sur 0 985 0.9 43
2019-08-29 19:00:00 30 13 Sur 30 Sudoeste 0 984.4 0.1 35
2019-08-29 18:00:00 31.1 15 Sur 29 Sur 0 984.1 -0.8 32
2019-08-29 17:00:00 32.4 14 Sur 27 Sudoeste 0 984.1 -1.4 31
2019-08-29 16:00:00 32.6 12 Sur 22 Sur 0 984.3 -1.6 32
2019-08-29 15:00:00 33 8 Sur 21 Sur 0 984.9 -1.3 32
2019-08-29 14:00:00 31.5 9 Sur 23 Sudoeste 0 985.5 -1 35
2019-08-29 13:00:00 30 9 Sur 20 Sudoeste 0 985.9 -0.7 39
2019-08-29 12:00:00 26.4 4 Oeste 8 Oeste 0 986.2 -0.3 55
2019-08-29 11:00:00 23.9 4 Sudoeste 8 Sudoeste 0 986.5 0.3 65
2019-08-29 10:00:00 21.1 4 Sudoeste 6 Oeste 0 986.6 0.7 74
2019-08-29 09:00:00 18.7 4 Norte 7 Norte 0 986.5 1 83
2019-08-29 08:00:00 18 3 Nordeste 5 Nordeste 0 986.2 1 87
2019-08-29 07:00:00 18.2 2 Nordeste 5 Nordeste 0 985.9 0.9 84
2019-08-29 06:00:00 18.3 2 Oeste 6 Oeste 0 985.5 0.4 84
2019-08-29 05:00:00 19.2 2 Norte 5 Nordeste 0 985.2 -0.1 84
2019-08-29 04:00:00 19.9 0 Calma 8 Norte 0 985 -0.2 81
2019-08-29 03:00:00 20.2 2 Noroeste 5 Noroeste 0 985.1 0 81
2019-08-29 02:00:00 21.3 3 Norte 8 Este 0 985.3 0.5 78
2019-08-29 01:00:00 21.9 0 Calma 7 Sudoeste 0 985.2 0.9 75
2019-08-29 00:00:00 22.8 4 Sudoeste 10 Sur 0 985.1 2.1 72
2019-08-28 23:00:00 23.6 5 Sur 14 Sur 0 984.8 2.6 68
2019-08-28 22:00:00 24 8 Sur 21 Sur 0 984.3 2.6 65
2019-08-28 21:00:00 25 10 Sur 27 Sur 0 983 1.4 62
2019-08-28 20:00:00 26.8 12 Sur 26 Sur 0 982.2 0.5 53
2019-08-28 19:00:00 28.5 13 Sur 27 Sur 0 981.7 -0.2 48
2019-08-28 18:00:00 29.8 12 Sur 22 Sudoeste 0 981.6 -0.8 42
2019-08-28 17:00:00 31.5 11 Sur 23 Sudoeste 0 981.7 -1.3 33
2019-08-28 16:00:00 31.3 5 Sur 17 Sur 0 981.9 -1.5 30
2019-08-28 15:00:00 30.6 5 Sur 16 Sudoeste 0 982.4 -1.4 29
2019-08-28 14:00:00 29 7 Oeste 13 Noroeste 0 983 -0.9 37
2019-08-28 13:00:00 27.3 4 Sudoeste 13 Noroeste 0 983.4 -0.4 47
2019-08-28 12:00:00 25.3 3 Sudoeste 7 Sudoeste 0 983.8 0.1 56
2019-08-28 11:00:00 22.8 2 Oeste 8 Nordeste 0 983.9 0.4 67
2019-08-28 10:00:00 20.7 4 Norte 6 Nordeste 0 983.8 0.6 77
2019-08-28 09:00:00 18 3 Oeste 7 Oeste 0 983.7 0.4 88
2019-08-28 08:00:00 17.8 2 Nordeste 6 Este 0 983.5 0.1 92
2019-08-28 07:00:00 18 5 Oeste 7 Oeste 0 983.2 -0.2 91
2019-08-28 06:00:00 18.7 3 Nordeste 7 Nordeste 0 983.3 -0.3 91
2019-08-28 05:00:00 18.7 0 Calma 8 Nordeste 0 983.4 -0.3 90
2019-08-28 04:00:00 18.9 5 Nordeste 8 Norte 0 983.4 -0.1 90
2019-08-28 03:00:00 19.1 3 Nordeste 8 Oeste 0 983.6 0.2 90
2019-08-28 02:00:00 19.2 2 Sudeste 6 Oeste 0 983.7 0.5 90
2019-08-28 01:00:00 19.3 3 Oeste 9 Oeste 0 983.5 0.5 89
2019-08-28 00:00:00 20 3 Sur 7 Oeste 0 983.4 0.9 91
2019-08-27 23:00:00 20.4 0 Calma 8 Este 0 983.2 0.9 88
2019-08-27 22:00:00 20.8 5 Este 9 Este 0 983 1.2 86
2019-08-27 21:00:00 21.3 3 Sudeste 7 Sudeste 0 982.5 0 82
2019-08-27 20:00:00 21.5 3 Sudeste 8 Sudoeste 0 982.3 -0.6 83
2019-08-27 19:00:00 22.1 2 Oeste 8 Oeste 0 981.8 -2 76
2019-08-27 18:00:00 21.9 4 Oeste 12 Oeste 0.4 982.5 -1.9 82
2019-08-27 17:00:00 20.4 4 Noroeste 10 Oeste 2.4 982.9 -0.9 84
2019-08-27 16:00:00 20.3 6 Sudoeste 10 Sur 0.8 983.8 -0.2 87
2019-08-27 15:00:00 20.4 4 Oeste 26 Sur 5.4 984.4 0.4 86
2019-08-27 14:00:00 24.9 3 Sur 24 Sudoeste 0 983.8 0.9 60
2019-08-27 13:00:00 25.2 12 Sur 25 Sur 0 984 1.7 58
2019-08-27 12:00:00 24.2 6 Sur 10 Sur 0 984 1.4 61
2019-08-27 11:00:00 23 3 Norte 10 Nordeste 0 982.9 -0.4 66
2019-08-27 10:00:00 20.5 5 Noroeste 14 Nordeste 0 982.3 -0.3 80
2019-08-27 09:00:00 20.2 8 Este 14 Este 0 982.6 -0.5 85
2019-08-27 08:00:00 19.9 5 Oeste 10 Norte 0.2 983.3 -0.4 84
2019-08-27 07:00:00 20 9 Nordeste 17 Nordeste 0 982.6 -0.3 84
2019-08-27 06:00:00 20.8 4 Este 9 Sudeste 0 983.1 -0.3 78
2019-08-27 05:00:00 20.6 4 Oeste 19 Oeste 0 983.7 0.5 80
2019-08-27 04:00:00 20.5 4 Nordeste 17 Nordeste 0 982.9 -1.1 80
2019-08-27 03:00:00 20.9 5 Nordeste 13 Oeste 0 983.4 0.2 79
2019-08-27 02:00:00 21 5 Este 14 Este 0 983.2 0.2 76
2019-08-27 01:00:00 21 6 Oeste 11 Oeste 0 984 1.4 73
2019-08-27 00:00:00 22.5 2 Este 6 Sur 0 983.2 1.3 79
2019-08-26 23:00:00 23.3 3 Sudoeste 13 Sur 0 983 1.5 76
2019-08-26 22:00:00 24.3 7 Sur 14 Sur 0 982.6 1.9 63
2019-08-26 21:00:00 25.6 9 Sur 19 Sur 0 981.9 -0.4 57
2019-08-26 20:00:00 27.6 11 Sur 28 Sudoeste 0 981.5 -1.4 41
2019-08-26 19:00:00 29.4 13 Sur 26 Sudoeste 0 980.7 -2.4 33
2019-08-26 18:00:00 29.4 10 Sur 24 Sudeste 0 982.3 -0.8 34
2019-08-26 17:00:00 29.6 13 Sur 27 Sudeste 0 982.9 -0.1 34
2019-08-26 16:00:00 30.7 15 Sur 31 Sur 0 983.1 -0.3 29
2019-08-26 15:00:00 32.8 13 Sur 27 Sur 0 983.1 -0.9 19
2019-08-26 14:00:00 32.4 10 Sudoeste 21 Sur 0 983 -1.3 23
2019-08-26 13:00:00 30.2 4 Sur 10 Sudoeste 0 983.4 -1.1 28
2019-08-26 12:00:00 27.5 4 Nordeste 9 Nordeste 0 984 -0.7 40
2019-08-26 11:00:00 24.2 6 Nordeste 10 Norte 0 984.3 0.1 50
2019-08-26 10:00:00 20.3 4 Oeste 8 Norte 0 984.5 0.5 63
2019-08-26 09:00:00 16.8 5 Nordeste 8 Nordeste 0 984.7 0.8 77
2019-08-26 08:00:00 16 3 Nordeste 9 Nordeste 0 984.2 0 79
2019-08-26 07:00:00 15.8 3 Oeste 6 Oeste 0 984 0 79
2019-08-26 06:00:00 16.7 4 Norte 8 Nordeste 0 983.9 -0.2 77
2019-08-26 05:00:00 17.6 2 Norte 8 Nordeste 0 984.2 -0.1 74
2019-08-26 04:00:00 18.3 3 Nordeste 7 Norte 0 984 -0.3 71
2019-08-26 03:00:00 19.1 3 Nordeste 7 Nordeste 0 984.1 -0.2 69
2019-08-26 02:00:00 20.3 3 Noroeste 7 Nordeste 0 984.3 0.1 64
2019-08-26 01:00:00 21.3 2 Noroeste 6 Oeste 0 984.3 0.3 60
2019-08-26 00:00:00 22.8 3 Oeste 6 Oeste 0 984.3 1 57
2019-08-25 23:00:00 24.7 4 Sur 13 Sur 0 984.2 1.1 57
2019-08-25 22:00:00 26.1 6 Sur 12 Sur 0 984 1.2 50
2019-08-25 21:00:00 27.4 6 Sur 20 Sur 0 983.3 0.7 40
2019-08-25 20:00:00 29.3 10 Sur 25 Sur 0 983.1 0.6 33
2019-08-25 19:00:00 30.5 13 Sur 30 Sudeste 0 982.8 0.3 31
2019-08-25 18:00:00 31.6 15 Sur 35 Sur 0 982.6 -0.1 28
2019-08-25 17:00:00 32.7 15 Sur 35 Sur 0 982.5 -0.5 27
2019-08-25 16:00:00 33.6 16 Sur 27 Sudoeste 0 982.5 -1.3 25
2019-08-25 15:00:00 34.4 9 Sur 22 Sur 0 982.7 -1.9 20
2019-08-25 14:00:00 33.1 5 Sur 16 Sudoeste 0 983 -2.2 22
2019-08-25 13:00:00 31.3 3 Noroeste 9 Sudoeste 0 983.8 -1.3 28
2019-08-25 12:00:00 28.2 3 Este 10 Nordeste 0 984.6 -0.5 38
2019-08-25 11:00:00 25 3 Sudeste 8 Norte 0 985.2 0.5 51
2019-08-25 10:00:00 21.9 3 Nordeste 7 Norte 0 985.1 0.6 63
2019-08-25 09:00:00 18.2 4 Nordeste 8 Nordeste 0 985.1 0.7 75
2019-08-25 08:00:00 17.6 5 Nordeste 7 Nordeste 0 984.7 0 78
2019-08-25 07:00:00 17.7 0 Calma 6 Nordeste 0 984.5 -0.3 77
2019-08-25 06:00:00 18.3 2 Oeste 5 Norte 0 984.4 -0.5 74
2019-08-25 05:00:00 19 3 Noroeste 5 Norte 0 984.7 -0.3 71
2019-08-25 04:00:00 20 2 Oeste 6 Nordeste 0 984.8 -0.3 69
2019-08-25 03:00:00 20.8 4 Norte 6 Noroeste 0 984.9 -0.3 68
2019-08-25 02:00:00 21.4 2 Norte 5 Noroeste 0 985 -0.2 65
2019-08-25 01:00:00 22.3 2 Noroeste 10 Oeste 0 985.1 0.3 60
2019-08-25 00:00:00 23.6 4 Oeste 10 Sudoeste 0 985.2 1.1 58
2019-08-24 23:00:00 24.8 4 Sur 12 Sur 0 985.2 1.6 55
2019-08-24 22:00:00 25.7 7 Sur 22 Sur 0 984.8 1.4 48
2019-08-24 21:00:00 26.9 11 Sur 27 Sur 0 984.1 0.8 43
2019-08-24 20:00:00 28.5 12 Sur 33 Sudeste 0 983.6 0.2 38
2019-08-24 19:00:00 30.1 15 Sur 35 Sudoeste 0 983.4 -0.3 33
2019-08-24 18:00:00 31.6 15 Sur 36 Sudeste 0 983.3 -0.6 29
2019-08-24 17:00:00 32.6 16 Sur 32 Sur 0 983.4 -1 28
2019-08-24 16:00:00 32 16 Sur 31 Sur 0 983.7 -1.5 30
2019-08-24 15:00:00 33.2 12 Sur 28 Sudoeste 0 983.9 -1.9 27
2019-08-24 14:00:00 32.3 10 Sur 21 Sudoeste 0 984.4 -1.8 30
2019-08-24 13:00:00 30.4 6 Sur 13 Sur 0 985.2 -1.1 34
2019-08-24 12:00:00 27.5 3 Sudoeste 9 Sur 0 985.8 -0.4 47
2019-08-24 11:00:00 24.4 3 Sur 8 Nordeste 0 986.2 0.3 56
2019-08-24 10:00:00 21.2 2 Noroeste 7 Oeste 0 986.3 0.4 66
2019-08-24 09:00:00 18.1 4 Oeste 7 Oeste 0 986.2 0.3 79
2019-08-24 08:00:00 17.2 2 Noroeste 6 Nordeste 0 985.9 0 81
2019-08-24 07:00:00 17.2 3 Oeste 7 Oeste 0 985.9 0 80
2019-08-24 06:00:00 18 3 Oeste 8 Nordeste 0 985.9 0 77
2019-08-24 05:00:00 18.6 4 Nordeste 7 Nordeste 0 985.9 -0.1 76
2019-08-24 04:00:00 19.2 2 Nordeste 8 Nordeste 0 985.9 -0.1 74
2019-08-24 03:00:00 20.1 0 Calma 6 Noroeste 0 985.9 0.1 69
2019-08-24 02:00:00 20.6 4 Oeste 6 Oeste 0 986 0.1 68
2019-08-24 01:00:00 21.5 0 Calma 6 Oeste 0 986 0.3 65
2019-08-24 00:00:00 22.7 0 Calma 4 Oeste 0 985.8 0.7 59
2019-08-23 23:00:00 23.9 2 Sur 9 Sudoeste 0 985.9 1.3 53
2019-08-23 22:00:00 24.7 5 Sudoeste 18 Sur 0 985.7 1.2 50
2019-08-23 21:00:00 25.6 9 Sur 26 Sur 0 985.1 0.7 49
2019-08-23 20:00:00 27.4 13 Sur 30 Sur 0 984.6 0.1 45
2019-08-23 19:00:00 28.7 15 Sur 33 Sur 0 984.5 -0.3 42
2019-08-23 18:00:00 29.9 15 Sur 32 Sur 0 984.4 -0.8 38
2019-08-23 17:00:00 30.9 17 Sur 31 Sur 0 984.5 -1.3 33
2019-08-23 16:00:00 31.4 17 Sur 30 Sudoeste 0 984.8 -1.6 30
2019-08-23 15:00:00 32.1 6 Sudoeste 20 Sur 0 985.2 -1.7 27
2019-08-23 14:00:00 31.4 4 Sudeste 14 Oeste 0 985.8 -1.6 27
2019-08-23 13:00:00 29.5 5 Sur 11 Oeste 0 986.4 -1.2 35
2019-08-23 12:00:00 26.7 3 Sur 6 Este 0 986.9 -0.6 39
2019-08-23 11:00:00 23.7 3 Este 9 Noroeste 0 987.4 0.1 51
2019-08-23 10:00:00 20.9 3 Nordeste 8 Norte 0 987.6 0.4 63
2019-08-23 09:00:00 17.4 4 Nordeste 9 Nordeste 0 987.5 0.4 77
2019-08-23 08:00:00 16.3 5 Nordeste 8 Norte 0 987.3 0.2 80
2019-08-23 07:00:00 16.6 4 Nordeste 9 Este 0 987.2 -0.1 80
2019-08-23 06:00:00 16.9 4 Nordeste 10 Este 0 987.1 -0.1 79
2019-08-23 05:00:00 17.4 6 Nordeste 8 Norte 0 987.1 -0.3 78
2019-08-23 04:00:00 18.5 6 Nordeste 12 Nordeste 0 987.3 0.3 74
2019-08-23 03:00:00 19.2 7 Nordeste 11 Nordeste 0 987.2 -0.1 72
2019-08-23 02:00:00 20.2 2 Norte 5 Oeste 0 987.4 0.1 77
2019-08-23 01:00:00 21.6 3 Este 9 Sudeste 0 987 0 74
2019-08-23 00:00:00 22.4 5 Oeste 8 Oeste 0 987.3 1 73
2019-08-22 23:00:00 23.4 5 Oeste 7 Sudoeste 0 987.3 1.8 68
2019-08-22 22:00:00 24.4 5 Sudoeste 19 Sur 0 987 2 61
2019-08-22 21:00:00 25.2 11 Sur 24 Sur 0 986.3 1.5 57
2019-08-22 20:00:00 26.8 12 Sur 34 Sur 0 985.5 0.7 48
2019-08-22 19:00:00 28.6 13 Sur 32 Sudoeste 0 985 0.1 41
2019-08-22 18:00:00 29.3 15 Sur 33 Sudeste 0 984.8 -0.5 39
2019-08-22 17:00:00 31 17 Sur 36 Sur 0 984.8 -0.9 35
2019-08-22 16:00:00 31.9 4 Sudeste 19 Oeste 0 984.9 -1.3 25
2019-08-22 15:00:00 30.7 8 Sur 21 Noroeste 0 985.3 -1.4 32
2019-08-22 14:00:00 29.5 8 Oeste 19 Oeste 0 985.7 -0.9 39
2019-08-22 13:00:00 27.8 5 Sur 16 Oeste 0 986.2 -0.5 48
2019-08-22 12:00:00 26.6 6 Oeste 14 Oeste 0 986.7 -0.1 55
2019-08-22 11:00:00 24.8 4 Norte 10 Nordeste 0 986.6 0.3 63
2019-08-22 10:00:00 22.9 3 Este 8 Este 0 986.7 0.7 71
2019-08-22 09:00:00 19.9 3 Norte 6 Norte 0 986.8 1 82
2019-08-22 08:00:00 19 4 Nordeste 8 Este 0 986.3 0.5 85
2019-08-22 07:00:00 19.4 3 Nordeste 5 Nordeste 0 986 0.5 86
2019-08-22 06:00:00 19.9 2 Nordeste 6 Este 0 985.8 0.2 83
2019-08-22 05:00:00 20.5 3 Nordeste 6 Nordeste 0 985.8 -0.2 82
2019-08-22 04:00:00 21.1 2 Nordeste 8 Nordeste 0 985.5 -0.7 79
2019-08-22 03:00:00 21.5 3 Norte 7 Norte 0 985.6 -0.7 78
2019-08-22 02:00:00 21.9 3 Nordeste 8 Nordeste 0 986 -0.1 76
2019-08-22 01:00:00 22.5 3 Sur 14 Sur 0 986.2 0.5 76
2019-08-22 00:00:00 22.9 8 Sur 15 Sur 0 986.3 1.1 74
2019-08-21 23:00:00 23.1 6 Sur 15 Sur 0 986.1 1.6 74
2019-08-21 22:00:00 23.5 9 Sur 17 Sudeste 0 985.7 1.6 71
2019-08-21 21:00:00 24.1 7 Sur 27 Sur 0 985.2 1.4 68
2019-08-21 20:00:00 24.7 12 Sur 30 Sudoeste 0 984.5 1 63
2019-08-21 19:00:00 25.8 13 Sur 32 Sudoeste 0 984.1 0.3 55
2019-08-21 18:00:00 27.7 18 Sur 37 Sudoeste 0 983.8 -0.6 48
2019-08-21 17:00:00 28.1 14 Sur 35 Sur 0 983.5 -1.6 45
2019-08-21 16:00:00 31 4 Sudeste 16 Nordeste 0 983.8 -2.3 29
2019-08-21 15:00:00 29.8 6 Norte 13 Noroeste 0 984.4 -2.4 32
2019-08-21 14:00:00 27.8 5 Nordeste 14 Nordeste 0 985.1 -2.1 41
2019-08-21 13:00:00 25.6 6 Este 14 Nordeste 0 986.1 -1.4 48
2019-08-21 12:00:00 23.4 5 Nordeste 13 Norte 0 986.8 -0.9 56
2019-08-21 11:00:00 21.2 5 Norte 10 Norte 0 987.2 -0.5 64
2019-08-21 10:00:00 18.6 5 Norte 12 Nordeste 0 987.5 0 71
2019-08-21 09:00:00 15.1 8 Nordeste 15 Norte 0 987.7 0.3 82
2019-08-21 08:00:00 14.5 6 Nordeste 12 Nordeste 0 987.7 0 88
2019-08-21 07:00:00 14.6 3 Nordeste 12 Nordeste 0 987.5 -0.1 89
2019-08-21 06:00:00 14.9 4 Nordeste 8 Nordeste 0 987.4 -0.6 88
2019-08-21 05:00:00 15.2 4 Nordeste 10 Nordeste 0 987.7 -0.3 90
2019-08-21 04:00:00 15.8 6 Nordeste 10 Nordeste 0 987.6 -0.5 87
2019-08-21 03:00:00 16.3 3 Nordeste 6 Nordeste 0 988 0 87
2019-08-21 02:00:00 17.1 5 Nordeste 9 Este 0 988 0.1 84
2019-08-21 01:00:00 18.4 4 Nordeste 7 Norte 0 988.1 0.9 82
2019-08-21 00:00:00 19.2 4 Nordeste 9 Nordeste 0 988 1.2 78